Time;durP1;ratioP1;P1;durP2;ratioP2;P2;SDS_P1;SDS_P2;PMS_P1;PMS_P2;Temp;Humidity;BMP_temperature;BMP_pressure;BME280_temperature;BME280_humidity;BME280_pressure;Samples;Min_cycle;Max_cycle;Signal;HPM_P1;HPM_P2
2022/07/06 00:01:53;;;;;;;15.93;6.95;;;;;;;22.72;66.25;99916.98;1791492;80;21102;-70
2022/07/06 00:04:19;;;;;;;9.93;7.10;;;;;;;22.70;66.01;99910.91;1791705;80;21109;-69
2022/07/06 00:06:47;;;;;;;12.13;6.90;;;;;;;22.68;66.12;99912.05;1791174;80;21030;-71
2022/07/06 00:09:13;;;;;;;7.95;7.08;;;;;;;22.63;66.00;99911.13;1778607;80;21121;-72
2022/07/06 00:11:42;;;;;;;8.73;6.95;;;;;;;22.57;66.35;99904.98;1777533;80;21019;-70
2022/07/06 00:14:08;;;;;;;11.03;6.50;;;;;;;22.51;66.50;99910.91;1777616;80;21067;-71
2022/07/06 00:16:35;;;;;;;12.15;6.60;;;;;;;22.44;66.77;99908.42;1777512;80;21157;-72
2022/07/06 00:19:02;;;;;;;12.40;7.55;;;;;;;22.39;67.27;99908.84;1777206;80;21440;-70
2022/07/06 00:21:29;;;;;;;8.73;7.03;;;;;;;22.33;67.38;99906.19;1777553;80;21023;-71
2022/07/06 00:23:55;;;;;;;11.12;7.08;;;;;;;22.27;67.89;99905.42;1777786;80;21055;-69
2022/07/06 00:26:22;;;;;;;11.55;7.17;;;;;;;22.22;68.27;99903.63;1777349;80;21038;-71
2022/07/06 00:28:49;;;;;;;12.63;8.15;;;;;;;22.22;68.46;99898.26;1777304;80;21239;-71
2022/07/06 00:31:17;;;;;;;8.48;6.78;;;;;;;22.22;68.43;99895.58;1777440;80;21075;-71
2022/07/06 00:33:45;;;;;;;8.70;7.12;;;;;;;22.22;68.40;99892.89;1777501;80;21121;-70
2022/07/06 00:36:12;;;;;;;10.05;7.28;;;;;;;22.22;68.16;99896.92;1777549;80;21106;-71
2022/07/06 00:38:39;;;;;;;12.45;7.92;;;;;;;22.22;68.42;99898.76;1777532;80;21047;-70
2022/07/06 00:41:06;;;;;;;10.63;7.10;;;;;;;22.19;68.38;99902.03;1777662;80;21141;-70
2022/07/06 00:43:57;;;;;;;9.05;7.00;;;;;;;22.16;68.48;99902.32;1777300;80;21571;-70
2022/07/06 00:46:30;;;;;;;10.38;6.85;;;;;;;22.14;68.72;99908.80;1776304;80;21090;-69
2022/07/06 00:48:58;;;;;;;8.15;7.12;;;;;;;22.06;68.70;99904.60;1777595;80;21480;-69
2022/07/06 00:51:30;;;;;;;12.50;7.28;;;;;;;21.99;69.05;99901.14;1777460;80;21099;-70
2022/07/06 00:54:01;;;;;;;10.25;7.42;;;;;;;21.93;69.19;99899.00;1795549;79;21254;-69
2022/07/06 00:56:31;;;;;;;10.65;7.25;;;;;;;21.86;69.84;99899.19;1806735;79;21104;-70
2022/07/06 00:59:00;;;;;;;11.57;6.78;;;;;;;21.86;70.44;99894.32;1756485;81;21112;-71
2022/07/06 01:01:27;;;;;;;9.95;7.25;;;;;;;21.87;69.91;99895.50;1755940;81;22255;-68
2022/07/06 01:03:55;;;;;;;10.65;7.35;;;;;;;21.88;69.73;99896.34;1787925;80;21037;-70
2022/07/06 01:06:22;;;;;;;7.75;6.75;;;;;;;21.86;69.65;99895.16;1756673;81;21285;-69
2022/07/06 01:08:49;;;;;;;10.85;7.55;;;;;;;21.86;69.73;99899.19;1775711;79;21045;-70
2022/07/06 01:11:18;;;;;;;12.43;7.60;;;;;;;21.86;69.93;99896.50;1821392;78;21041;-70
2022/07/06 01:13:46;;;;;;;10.23;7.17;;;;;;;21.85;70.42;99895.29;1789114;80;21104;-70
2022/07/06 01:16:13;;;;;;;12.65;7.70;;;;;;;21.85;70.31;99892.11;1821510;78;21077;-70
2022/07/06 01:18:41;;;;;;;12.85;7.60;;;;;;;21.86;70.30;99902.36;1788692;80;21176;-69
2022/07/06 01:21:14;;;;;;;8.90;7.03;;;;;;;21.85;70.19;99896.13;1821298;78;21093;-71
2022/07/06 01:23:44;;;;;;;17.77;7.60;;;;;;;21.84;70.43;99897.13;1789238;80;21029;-71
2022/07/06 01:26:18;;;;;;;10.10;7.67;;;;;;;21.84;70.50;99902.48;1821197;78;21560;-69
2022/07/06 01:28:46;;;;;;;12.45;7.37;;;;;;;21.82;70.39;99899.09;1788811;80;21045;-70
2022/07/06 01:31:22;;;;;;;13.15;7.40;;;;;;;21.81;70.92;99899.22;1821422;78;21832;-70
2022/07/06 01:33:52;;;;;;;9.90;7.65;;;;;;;21.78;70.86;99901.17;1788881;80;21073;-70
2022/07/06 01:36:20;;;;;;;13.28;8.25;;;;;;;21.75;71.01;99900.11;1821503;78;21041;-70
2022/07/06 01:38:52;;;;;;;12.28;7.15;;;;;;;21.73;70.99;99902.58;1788900;80;21522;-69
2022/07/06 01:41:19;;;;;;;14.55;7.75;;;;;;;21.70;71.55;99902.85;1821284;78;21546;-69
2022/07/06 01:43:46;;;;;;;13.13;7.92;;;;;;;21.67;71.95;99906.66;1788967;80;21749;-70
2022/07/06 01:46:13;;;;;;;12.55;7.58;;;;;;;21.67;71.88;99912.48;1821210;78;21029;-71
2022/07/06 01:48:39;;;;;;;10.93;7.92;;;;;;;21.66;72.08;99909.45;1771137;80;21077;-69
2022/07/06 01:51:06;;;;;;;10.60;8.40;;;;;;;21.63;72.32;99907.05;1821368;78;21033;-70
2022/07/06 01:53:34;;;;;;;10.08;7.55;;;;;;;21.61;72.77;99909.02;1786438;80;21519;-70
2022/07/06 01:56:01;;;;;;;15.78;8.23;;;;;;;21.58;72.67;99903.43;1783687;80;21479;-70
2022/07/06 01:58:29;;;;;;;9.85;7.20;;;;;;;21.55;72.96;99909.87;1783730;80;21046;-70
2022/07/06 02:00:56;;;;;;;10.43;7.90;;;;;;;21.49;73.07;99902.39;1783696;80;21039;-71
2022/07/06 02:03:23;;;;;;;14.18;7.78;;;;;;;21.48;73.78;99904.69;1783488;80;21051;-70
2022/07/06 02:05:50;;;;;;;14.55;7.90;;;;;;;21.46;73.83;99906.66;1783958;80;21530;-71
2022/07/06 02:08:17;;;;;;;9.93;7.78;;;;;;;21.46;73.94;99903.13;1784331;80;21518;-70
2022/07/06 02:10:44;;;;;;;12.18;7.58;;;;;;;21.45;74.49;99902.29;1786826;80;21579;-69
2022/07/06 02:13:12;;;;;;;10.65;7.50;;;;;;;21.43;74.36;99905.59;1762642;80;21109;-71
2022/07/06 02:15:39;;;;;;;15.95;8.10;;;;;;;21.43;74.62;99900.23;1786587;80;21003;-71
2022/07/06 02:18:07;;;;;;;12.63;8.35;;;;;;;21.43;74.74;99905.59;1787337;80;21026;-70
2022/07/06 02:20:34;;;;;;;10.88;7.80;;;;;;;21.42;75.34;99905.24;1787148;80;22065;-70
2022/07/06 02:23:00;;;;;;;15.18;8.43;;;;;;;21.41;75.58;99902.19;1787173;80;21011;-70
2022/07/06 02:25:27;;;;;;;10.63;7.58;;;;;;;21.41;75.28;99907.55;1787370;80;21011;-70
2022/07/06 02:27:54;;;;;;;12.43;7.85;;;;;;;21.41;75.50;99908.89;1787134;80;21105;-70
2022/07/06 02:30:21;;;;;;;13.68;7.03;;;;;;;21.43;75.61;99909.61;1787186;80;21543;-71
2022/07/06 02:32:47;;;;;;;14.23;8.05;;;;;;;21.44;75.22;99903.28;1787493;80;21199;-71
2022/07/06 02:35:15;;;;;;;12.18;7.60;;;;;;;21.45;75.73;99899.61;1787198;80;21035;-70
2022/07/06 02:37:42;;;;;;;11.68;7.28;;;;;;;21.46;75.80;99893.25;1762853;80;21090;-70
2022/07/06 02:40:11;;;;;;;15.90;7.85;;;;;;;21.47;75.68;99890.95;1762712;80;21137;-70
2022/07/06 02:42:38;;;;;;;10.25;7.62;;;;;;;21.49;75.79;99889.50;1787527;80;21050;-70
2022/07/06 02:45:08;;;;;;;13.75;7.22;;;;;;;21.52;75.62;99890.06;1787162;80;21233;-70
2022/07/06 02:47:35;;;;;;;11.33;7.53;;;;;;;21.57;75.54;99897.20;1787391;80;21143;-71
2022/07/06 02:50:05;;;;;;;12.13;7.50;;;;;;;21.64;75.17;99895.34;1787138;80;21062;-71
2022/07/06 02:52:31;;;;;;;12.23;7.92;;;;;;;21.68;75.18;99888.73;1787164;80;21066;-70
2022/07/06 02:54:59;;;;;;;12.68;7.83;;;;;;;21.73;75.16;99884.66;1812273;79;20963;-71
2022/07/06 02:57:27;;;;;;;13.00;7.28;;;;;;;21.79;74.61;99889.48;1787490;80;21129;-70
2022/07/06 02:59:53;;;;;;;10.25;7.55;;;;;;;21.85;74.80;99892.11;1812555;79;21707;-71
2022/07/06 03:02:20;;;;;;;10.08;7.75;;;;;;;21.89;74.72;99884.66;1787044;80;21061;-71
2022/07/06 03:04:47;;;;;;;11.55;7.40;;;;;;;21.96;74.75;99885.31;1812668;79;21089;-71
2022/07/06 03:07:14;;;;;;;10.05;7.42;;;;;;;22.03;74.70;99889.64;1787061;80;21017;-70
2022/07/06 03:09:42;;;;;;;11.63;7.22;;;;;;;22.13;74.19;99885.64;1818911;78;21588;-71
2022/07/06 03:12:10;;;;;;;13.10;8.23;;;;;;;22.21;73.61;99888.53;1821873;78;21057;-72
2022/07/06 03:14:37;;;;;;;9.95;7.65;;;;;;;22.28;73.54;99884.30;1822109;78;21573;-70
2022/07/06 03:17:05;;;;;;;11.75;8.43;;;;;;;22.35;72.71;99888.13;1776406;80;21021;-71
2022/07/06 03:19:32;;;;;;;15.58;8.80;;;;;;;22.41;72.75;99890.27;1824476;78;21057;-69
2022/07/06 03:21:59;;;;;;;15.98;8.03;;;;;;;22.44;72.85;99890.98;1792110;80;21469;-72
2022/07/06 03:24:25;;;;;;;10.95;8.30;;;;;;;22.46;72.45;99887.17;1824208;78;21100;-70
2022/07/06 03:26:52;;;;;;;11.30;8.35;;;;;;;22.51;72.40;99887.59;1792379;80;21061;-70
2022/07/06 03:29:20;;;;;;;10.90;7.80;;;;;;;22.57;72.21;99894.25;1824260;78;21087;-71
2022/07/06 03:31:47;;;;;;;11.03;8.58;;;;;;;22.60;72.04;99892.13;1791982;80;21030;-70
2022/07/06 03:34:15;;;;;;;13.98;7.40;;;;;;;22.63;72.09;99889.15;1824421;78;21134;-70
2022/07/06 03:36:43;;;;;;;12.00;8.78;;;;;;;22.68;71.60;99890.06;1792164;80;21521;-70
2022/07/06 03:39:09;;;;;;;16.30;8.80;;;;;;;22.75;71.39;99887.67;1824207;78;21032;-69
2022/07/06 03:41:37;;;;;;;13.38;8.40;;;;;;;22.85;70.91;99894.41;1791838;80;20990;-69
2022/07/06 03:44:04;;;;;;;14.18;8.98;;;;;;;22.94;70.17;99893.06;1824817;78;21099;-70
2022/07/06 03:46:32;;;;;;;13.35;8.93;;;;;;;23.04;70.08;99897.10;1791724;80;21056;-72
2022/07/06 03:48:59;;;;;;;13.10;8.55;;;;;;;23.15;69.31;99902.83;1824235;78;21314;-70
2022/07/06 03:51:26;;;;;;;13.83;8.50;;;;;;;23.27;68.92;99902.17;1792169;80;21041;-71
2022/07/06 03:53:53;;;;;;;13.58;8.13;;;;;;;23.38;68.54;99893.45;1769959;80;21557;-70
2022/07/06 03:56:28;;;;;;;15.28;8.53;;;;;;;23.52;67.99;99900.20;1776649;80;21324;-70
2022/07/06 03:59:00;;;;;;;13.88;8.23;;;;;;;23.66;67.50;99901.07;1776461;80;21088;-70
2022/07/06 04:01:28;;;;;;;11.60;8.75;;;;;;;23.80;66.89;99893.56;1776312;80;21049;-70
2022/07/06 04:03:54;;;;;;;15.32;8.30;;;;;;;23.95;66.54;99888.05;1776887;80;21053;-70
2022/07/06 04:06:22;;;;;;;10.43;7.83;;;;;;;24.11;65.43;99885.20;1776624;80;21049;-72
2022/07/06 04:08:49;;;;;;;12.50;8.63;;;;;;;24.25;64.62;99884.71;1796520;79;21019;-69
2022/07/06 04:11:16;;;;;;;12.28;8.85;;;;;;;24.43;64.30;99884.72;1815578;79;21114;-70
2022/07/06 04:13:42;;;;;;;12.58;8.60;;;;;;;24.60;63.73;99885.78;1815663;79;21566;-71
2022/07/06 04:16:10;;;;;;;10.13;8.10;;;;;;;24.77;62.50;99877.34;1815707;79;21070;-70
2022/07/06 04:18:38;;;;;;;9.83;7.75;;;;;;;24.94;62.07;99881.89;1815690;79;21582;-72
2022/07/06 04:21:05;;;;;;;14.00;8.65;;;;;;;25.06;61.09;99880.63;1815724;79;21055;-72
2022/07/06 04:23:35;;;;;;;12.43;8.13;;;;;;;25.20;60.55;99877.06;1815727;79;21022;-71
2022/07/06 04:26:03;;;;;;;12.60;8.15;;;;;;;25.36;59.97;99877.69;1786235;79;21066;-71
2022/07/06 04:28:31;;;;;;;10.32;8.03;;;;;;;25.53;59.12;99871.37;1815824;79;21094;-70
2022/07/06 04:30:58;;;;;;;13.48;7.83;;;;;;;25.73;59.01;99868.79;1815692;79;21046;-70
2022/07/06 04:33:26;;;;;;;13.03;7.80;;;;;;;25.95;58.33;99871.46;1815685;79;21031;-70
2022/07/06 04:35:54;;;;;;;9.75;7.03;;;;;;;26.18;57.55;99865.95;1815566;79;21777;-70
2022/07/06 04:38:23;;;;;;;11.05;6.72;;;;;;;26.38;55.96;99860.10;1815376;79;21523;-70
2022/07/06 04:40:50;;;;;;;12.25;7.30;;;;;;;26.46;54.38;99860.64;1815803;79;21114;-70
2022/07/06 04:43:18;;;;;;;16.32;7.12;;;;;;;26.46;54.76;99859.30;1815546;79;21537;-70
2022/07/06 04:45:45;;;;;;;12.88;6.90;;;;;;;26.50;54.40;99849.86;1815956;79;21530;-70
2022/07/06 04:48:13;;;;;;;14.30;7.17;;;;;;;26.58;53.48;99847.18;1815670;79;21219;-69
2022/07/06 04:50:40;;;;;;;12.35;6.25;;;;;;;26.74;53.14;99857.16;1815501;79;21098;-70
2022/07/06 04:53:09;;;;;;;9.05;6.78;;;;;;;26.98;53.19;99854.11;1817182;78;20997;-70
2022/07/06 04:55:37;;;;;;;9.15;6.80;;;;;;;27.26;51.94;99847.85;1820941;78;21572;-69
2022/07/06 04:58:03;;;;;;;9.40;6.20;;;;;;;27.45;51.51;99845.78;1789159;79;21221;-70
2022/07/06 05:00:32;;;;;;;12.78;6.80;;;;;;;27.55;51.29;99841.04;1820983;78;21137;-69
2022/07/06 05:02:58;;;;;;;9.93;6.62;;;;;;;27.67;51.49;99850.45;1788729;79;21068;-72
2022/07/06 05:05:26;;;;;;;8.68;6.03;;;;;;;27.78;51.06;99837.07;1821009;78;21572;-71
2022/07/06 05:07:54;;;;;;;7.87;6.65;;;;;;;27.91;50.07;99837.91;1788733;80;22245;-69
2022/07/06 05:10:21;;;;;;;14.98;6.90;;;;;;;28.04;49.17;99838.16;1810687;78;21081;-70
2022/07/06 05:12:51;;;;;;;17.00;7.40;;;;;;;28.16;49.50;99834.05;1806573;79;20975;-71
2022/07/06 05:15:18;;;;;;;9.43;5.97;;;;;;;28.41;48.93;99831.16;1806313;79;21030;-69
2022/07/06 05:17:46;;;;;;;10.72;6.50;;;;;;;28.61;47.48;99835.12;1756355;81;21041;-72
2022/07/06 05:20:13;;;;;;;15.72;7.00;;;;;;;28.72;47.31;99833.02;1756433;81;21073;-71
2022/07/06 05:22:42;;;;;;;8.20;5.95;;;;;;;28.89;47.30;99829.12;1756449;81;21641;-71
2022/07/06 05:25:09;;;;;;;7.97;6.22;;;;;;;29.11;46.81;99827.45;1756683;81;21092;-70
2022/07/06 05:27:36;;;;;;;9.13;6.12;;;;;;;29.35;45.93;99823.63;1756512;81;21049;-71
2022/07/06 05:30:05;;;;;;;8.48;6.25;;;;;;;29.55;45.76;99820.38;1756723;81;21060;-70
2022/07/06 05:32:32;;;;;;;13.38;6.47;;;;;;;29.71;44.71;99813.94;1756450;81;21675;-71
2022/07/06 05:35:01;;;;;;;10.72;5.90;;;;;;;29.78;44.73;99813.51;1756574;81;21075;-70
2022/07/06 05:37:29;;;;;;;10.90;6.30;;;;;;;29.79;44.19;99809.23;1756358;81;21561;-70
2022/07/06 05:39:56;;;;;;;14.78;5.78;;;;;;;29.79;44.19;99809.23;1756752;81;21537;-70
2022/07/06 05:42:23;;;;;;;9.93;5.42;;;;;;;29.87;44.04;99805.59;1756567;81;21010;-72
2022/07/06 05:44:50;;;;;;;14.00;5.65;;;;;;;29.95;43.90;99804.63;1756554;81;21084;-72
2022/07/06 05:50:13;;;;;;;8.83;5.67;;;;;;;30.31;43.72;99802.77;1730644;81;21260;-72
2022/07/06 05:52:44;;;;;;;21.37;6.00;;;;;;;30.59;42.84;99806.59;1754143;81;21048;-72
2022/07/06 05:55:12;;;;;;;11.35;5.15;;;;;;;30.79;42.85;99805.42;1735977;82;21078;-70
2022/07/06 05:57:43;;;;;;;14.85;5.53;;;;;;;30.81;41.09;99795.19;1736219;82;21614;-71
2022/07/06 06:00:09;;;;;;;9.25;5.22;;;;;;;30.81;41.09;99795.19;1790505;79;21047;-71
2022/07/06 06:02:42;;;;;;;10.35;5.50;;;;;;;30.84;41.13;99795.66;1790688;79;21071;-71
2022/07/06 06:05:11;;;;;;;11.10;5.05;;;;;;;31.02;40.95;99787.54;1791172;79;21026;-72
2022/07/06 06:07:40;;;;;;;9.03;4.58;;;;;;;31.26;39.98;99780.78;1791088;80;21035;-70
2022/07/06 06:10:10;;;;;;;19.10;4.72;;;;;;;31.52;38.80;99782.86;1792968;79;21137;-70
2022/07/06 06:12:38;;;;;;;11.38;4.40;;;;;;;31.59;38.74;99771.98;1799265;79;21041;-70
2022/07/06 06:15:06;;;;;;;7.70;3.98;;;;;;;31.72;36.92;99765.23;1799027;79;21699;-70
2022/07/06 06:17:37;;;;;;;4.53;3.58;;;;;;;31.94;35.98;99764.06;1770586;79;21034;-70
2022/07/06 06:20:07;;;;;;;4.95;3.90;;;;;;;32.03;35.17;99763.92;1799304;79;21191;-70
2022/07/06 06:22:56;;;;;;;9.03;4.53;;;;;;;31.97;34.40;99761.48;1799009;79;21570;-71
2022/07/06 06:25:37;;;;;;;8.18;3.80;;;;;;;31.92;34.84;99759.34;1799028;79;21010;-74
2022/07/06 06:28:07;;;;;;;7.08;4.17;;;;;;;32.21;34.81;99751.91;1799273;79;21099;-72
2022/07/06 06:30:34;;;;;;;7.30;4.17;;;;;;;32.46;33.61;99754.02;1798381;79;21523;-71
2022/07/06 06:33:16;;;;;;;7.37;3.70;;;;;;;32.58;34.18;99759.21;1799576;79;21094;-71
2022/07/06 06:35:45;;;;;;;7.53;3.75;;;;;;;32.81;33.40;99758.25;1799237;79;21018;-71
2022/07/06 06:38:11;;;;;;;8.38;3.80;;;;;;;32.91;33.12;99759.71;1799422;79;21065;-71
2022/07/06 06:40:38;;;;;;;10.13;3.55;;;;;;;33.03;32.75;99758.00;1799115;79;21772;-72
2022/07/06 06:43:06;;;;;;;9.70;4.17;;;;;;;33.25;32.15;99752.34;1799200;79;21027;-71
2022/07/06 06:45:35;;;;;;;;;;;;;;;33.47;31.83;99757.81;1801822;79;21049;-69
2022/07/06 06:48:04;;;;;;;9.45;3.65;;;;;;;33.50;31.23;99749.21;1799209;79;20199;-69
2022/07/06 06:50:30;;;;;;;8.60;3.67;;;;;;;33.43;31.40;99755.22;1799567;79;21092;-72
2022/07/06 06:52:57;;;;;;;8.43;3.65;;;;;;;33.53;31.36;99751.50;1799237;79;21227;-72
2022/07/06 06:55:24;;;;;;;9.63;3.83;;;;;;;33.47;31.12;99748.26;1799531;79;21030;-71
2022/07/06 06:57:51;;;;;;;5.80;3.60;;;;;;;33.38;31.29;99742.73;1799312;79;21038;-70
2022/07/06 07:00:18;;;;;;;7.37;3.85;;;;;;;33.47;31.58;99741.44;1796466;79;21053;-71
2022/07/06 07:02:45;;;;;;;7.12;4.00;;;;;;;33.67;31.65;99735.10;1799421;79;21209;-71
2022/07/06 07:05:14;;;;;;;7.90;4.00;;;;;;;34.04;31.06;99736.14;1799467;79;21552;-71
2022/07/06 07:07:40;;;;;;;11.40;3.72;;;;;;;34.20;30.53;99738.91;1798851;79;21582;-72
2022/07/06 07:10:08;;;;;;;4.62;3.10;;;;;;;34.34;29.45;99732.29;1799605;79;21091;-71
2022/07/06 07:12:34;;;;;;;9.30;4.12;;;;;;;34.38;29.71;99736.26;1799794;79;20996;-69
2022/07/06 07:15:02;;;;;;;6.25;3.65;;;;;;;34.37;29.38;99735.97;1799783;79;21091;-71
2022/07/06 07:17:29;;;;;;;7.22;3.30;;;;;;;34.47;29.10;99724.53;1799987;79;21136;-71
2022/07/06 07:19:57;;;;;;;8.53;3.83;;;;;;;34.46;28.89;99729.67;1799622;79;21000;-71
2022/07/06 07:22:24;;;;;;;5.67;3.20;;;;;;;34.60;29.37;99733.98;1799495;79;21072;-71
2022/07/06 07:24:52;;;;;;;6.12;3.70;;;;;;;34.80;28.85;99736.55;1799615;79;21053;-72
2022/07/06 07:27:18;;;;;;;5.03;3.60;;;;;;;34.63;28.74;99735.47;1799853;79;21083;-70
2022/07/06 07:29:45;;;;;;;7.53;3.33;;;;;;;34.46;29.29;99727.80;1799415;79;21994;-70
2022/07/06 07:32:12;;;;;;;8.95;3.95;;;;;;;34.55;28.86;99728.86;1799227;79;21111;-71
2022/07/06 07:34:39;;;;;;;9.53;4.12;;;;;;;34.74;29.30;99721.06;1799663;79;21564;-71
2022/07/06 07:37:06;;;;;;;4.87;3.65;;;;;;;35.10;28.69;99720.78;1799636;79;21092;-71
2022/07/06 07:39:34;;;;;;;9.85;3.72;;;;;;;35.31;27.95;99719.52;1799880;79;21044;-71
2022/07/06 07:42:00;;;;;;;6.40;2.95;;;;;;;35.25;28.42;99709.51;1799597;78;21989;-71
2022/07/06 07:44:27;;;;;;;7.00;3.50;;;;;;;35.16;28.24;99714.45;1800124;79;20994;-70
2022/07/06 07:46:53;;;;;;;4.37;3.77;;;;;;;35.03;28.22;99720.02;1800013;79;21104;-72
2022/07/06 07:49:21;;;;;;;7.17;3.02;;;;;;;35.01;28.32;99716.14;1800008;79;21047;-72
2022/07/06 07:51:49;;;;;;;7.05;4.05;;;;;;;34.95;28.97;99713.47;1799714;79;21078;-71
2022/07/06 07:54:16;;;;;;;10.85;3.30;;;;;;;35.28;28.81;99705.77;1799258;79;21807;-71
2022/07/06 07:56:42;;;;;;;16.62;3.70;;;;;;;35.56;27.74;99703.53;1799806;79;21212;-71
2022/07/06 07:59:09;;;;;;;6.30;4.30;;;;;;;35.14;27.95;99708.89;1799961;79;20996;-74
2022/07/06 08:01:37;;;;;;;5.20;3.52;;;;;;;35.09;28.59;99705.45;1799855;79;21038;-72
2022/07/06 08:04:04;;;;;;;10.85;3.70;;;;;;;35.11;28.18;99712.93;1799793;79;21040;-73
2022/07/06 08:06:31;;;;;;;8.08;3.25;;;;;;;35.11;27.91;99712.93;1799574;79;21560;-71
2022/07/06 08:08:57;;;;;;;4.50;3.33;;;;;;;35.17;27.66;99706.52;1799708;79;21047;-72
2022/07/06 08:11:24;;;;;;;7.65;3.58;;;;;;;35.24;27.92;99714.13;1799408;79;21032;-71
2022/07/06 08:13:52;;;;;;;7.40;3.45;;;;;;;35.45;28.22;99710.10;1799773;79;20990;-71
2022/07/06 08:16:19;;;;;;;7.50;3.50;;;;;;;35.78;27.93;99712.13;1799871;79;21009;-71
2022/07/06 08:18:46;;;;;;;6.40;4.00;;;;;;;36.10;27.26;99709.45;1799674;79;21094;-70
2022/07/06 08:21:13;;;;;;;6.60;3.05;;;;;;;36.21;27.05;99711.08;1799736;79;21026;-73
2022/07/06 08:23:40;;;;;;;4.67;3.15;;;;;;;36.29;26.65;99708.01;1800220;79;21020;-71
2022/07/06 08:26:08;;;;;;;6.62;3.15;;;;;;;36.09;26.70;99700.89;1799849;79;21061;-72
2022/07/06 08:28:35;;;;;;;4.12;3.40;;;;;;;36.08;26.74;99699.23;1799805;79;21020;-70
2022/07/06 08:31:01;;;;;;;8.08;3.50;;;;;;;36.30;26.63;99706.92;1799843;79;21122;-71
2022/07/06 08:33:28;;;;;;;8.13;2.80;;;;;;;36.43;26.23;99704.52;1799556;79;21607;-70
2022/07/06 08:35:54;;;;;;;9.10;3.40;;;;;;;36.65;26.49;99700.66;1799800;78;21017;-71
2022/07/06 08:38:23;;;;;;;6.12;2.67;;;;;;;36.74;26.10;99704.72;1800112;79;21537;-71
2022/07/06 08:40:52;;;;;;;5.40;3.20;;;;;;;36.45;26.21;99707.31;1799768;79;21084;-70
2022/07/06 08:43:19;;;;;;;5.00;3.12;;;;;;;36.26;26.19;99704.34;1799118;79;21611;-71
2022/07/06 08:45:46;;;;;;;5.03;2.92;;;;;;;36.25;24.86;99698.58;1799779;79;21631;-73
2022/07/06 08:48:13;;;;;;;30.43;4.47;;;;;;;35.95;25.46;99700.80;1772816;79;21552;-71
2022/07/06 08:50:40;;;;;;;13.38;4.05;;;;;;;35.59;25.72;99701.69;1799510;79;21033;-72
2022/07/06 08:53:06;;;;;;;18.92;4.20;;;;;;;35.45;26.20;99700.52;1798207;79;21008;-72
2022/07/06 08:55:33;;;;;;;9.70;3.40;;;;;;;35.39;26.22;99711.55;1799640;79;21155;-70
2022/07/06 08:58:00;;;;;;;4.83;3.62;;;;;;;35.20;26.41;99709.33;1799981;79;21028;-72
2022/07/06 09:00:27;;;;;;;11.63;3.25;;;;;;;35.16;26.55;99696.66;1799786;79;21068;-72
2022/07/06 09:02:56;;;;;;;6.15;3.50;;;;;;;35.23;26.47;99689.20;1799945;79;21060;-71
2022/07/06 09:05:23;;;;;;;4.72;3.58;;;;;;;35.19;26.43;99683.05;1799672;79;21091;-73
2022/07/06 09:07:51;;;;;;;7.45;3.83;;;;;;;35.57;26.89;99681.41;1799982;79;21611;-71
2022/07/06 09:10:20;;;;;;;8.10;4.22;;;;;;;35.69;25.47;99676.83;1799006;79;21108;-72
2022/07/06 09:12:46;;;;;;;5.08;3.55;;;;;;;35.50;26.06;99675.19;1796054;79;21481;-70
2022/07/06 09:15:14;;;;;;;7.92;3.70;;;;;;;35.54;25.78;99668.16;1796098;79;21100;-71
2022/07/06 09:17:42;;;;;;;9.80;4.30;;;;;;;35.46;25.48;99674.80;1796115;79;21072;-72
2022/07/06 09:20:13;;;;;;;17.15;4.78;;;;;;;35.38;24.98;99668.80;1796457;79;21107;-72
2022/07/06 09:22:40;;;;;;;4.55;3.75;;;;;;;35.40;25.97;99657.92;1795926;79;21608;-71
2022/07/06 09:25:12;;;;;;;5.03;3.42;;;;;;;35.76;25.12;99664.95;1796143;79;21082;-71
2022/07/06 09:27:49;;;;;;;5.05;3.87;;;;;;;35.92;25.23;99668.39;1796130;79;21013;-71
2022/07/06 09:30:16;;;;;;;8.33;3.83;;;;;;;36.07;25.19;99661.92;1796302;79;21049;-73
2022/07/06 09:32:52;;;;;;;7.92;3.80;;;;;;;36.00;25.61;99651.60;1795902;79;21499;-72
2022/07/06 09:35:27;;;;;;;10.32;3.30;;;;;;;35.68;25.95;99657.88;1796423;79;21029;-71
2022/07/06 09:38:12;;;;;;;6.50;3.15;;;;;;;35.74;25.17;99653.39;1796079;79;21596;-73
2022/07/06 09:40:43;;;;;;;5.70;3.45;;;;;;;35.86;25.57;99650.14;1796212;79;21108;-70
2022/07/06 09:43:16;;;;;;;;;;;;;;;36.03;25.48;99640.70;1798675;79;21083;-72
2022/07/06 09:45:48;;;;;;;6.10;3.50;;;;;;;35.98;25.15;99645.52;1796023;79;21165;-73
2022/07/06 09:48:21;;;;;;;7.90;3.70;;;;;;;35.62;23.97;99650.08;1795891;79;21072;-71
2022/07/06 09:50:52;;;;;;;4.50;3.60;;;;;;;35.19;24.48;99652.40;1796367;79;21032;-72
2022/07/06 09:53:20;;;;;;;6.95;3.70;;;;;;;34.98;25.09;99650.94;1795411;79;21016;-71
2022/07/06 09:55:51;;;;;;;6.45;3.67;;;;;;;35.07;25.69;99644.09;1796436;79;21044;-70
2022/07/06 09:58:20;;;;;;;7.20;3.62;;;;;;;35.30;25.58;99643.41;1795102;79;22150;-71
2022/07/06 10:00:48;;;;;;;6.00;4.00;;;;;;;35.41;25.94;99638.24;1795905;79;21108;-72
2022/07/06 10:03:16;;;;;;;6.25;3.62;;;;;;;35.57;24.92;99639.47;1796037;79;21084;-72
2022/07/06 10:05:46;;;;;;;4.45;3.30;;;;;;;35.76;24.48;99632.09;1796178;79;21548;-73
2022/07/06 10:08:14;;;;;;;12.07;3.72;;;;;;;35.98;24.18;99630.45;1796314;79;21112;-71
2022/07/06 10:10:42;;;;;;;5.70;3.60;;;;;;;35.85;24.29;99631.52;1796524;79;21187;-72
2022/07/06 10:13:09;;;;;;;6.58;3.85;;;;;;;35.57;23.55;99622.53;1799689;79;21072;-72
2022/07/06 10:15:39;;;;;;;12.88;4.17;;;;;;;35.30;24.96;99637.11;1799533;79;21560;-71
2022/07/06 10:18:08;;;;;;;7.60;3.75;;;;;;;35.21;26.11;99629.75;1800071;79;21029;-71
2022/07/06 10:20:37;;;;;;;6.03;3.50;;;;;;;35.07;24.60;99624.11;1799775;79;21051;-69
2022/07/06 10:26:08;;;;;;;5.40;3.95;;;;;;;35.46;24.29;99621.95;1796180;79;22941;-71
2022/07/06 10:28:35;;;;;;;11.30;3.95;;;;;;;35.53;24.65;99622.69;1756633;81;21092;-72
2022/07/06 10:31:01;;;;;;;4.92;3.17;;;;;;;35.66;24.26;99621.16;1756454;81;21195;-71
2022/07/06 10:33:28;;;;;;;10.82;3.80;;;;;;;35.68;24.34;99627.25;1756254;81;20981;-72
2022/07/06 10:35:56;;;;;;;11.68;3.75;;;;;;;35.68;24.48;99625.02;1756344;81;21009;-70
2022/07/06 10:38:32;;;;;;;5.78;3.35;;;;;;;35.67;24.19;99618.71;1756631;81;21538;-71
2022/07/06 10:41:06;;;;;;;35.45;5.20;;;;;;;35.65;24.41;99618.11;1756333;81;21028;-69
2022/07/06 10:43:37;;;;;;;4.83;3.80;;;;;;;35.22;24.14;99616.89;1756459;81;21140;-71
2022/07/06 10:46:12;;;;;;;7.45;3.65;;;;;;;35.06;24.06;99608.23;1756149;81;21069;-72
2022/07/06 10:48:43;;;;;;;5.50;3.77;;;;;;;35.04;24.23;99599.92;1737327;81;21522;-72
2022/07/06 10:51:25;;;;;;;12.85;4.50;;;;;;;35.15;24.65;99609.30;1756160;81;21610;-73
2022/07/06 10:54:07;;;;;;;17.62;4.42;;;;;;;35.16;25.16;99600.88;1738863;81;21652;-72
2022/07/06 10:56:45;;;;;;;12.58;4.05;;;;;;;34.76;24.69;99600.48;1756456;81;21150;-71
2022/07/06 10:59:14;;;;;;;11.20;4.22;;;;;;;34.61;25.28;99600.88;1736279;81;21069;-71
2022/07/06 11:01:43;;;;;;;5.70;4.00;;;;;;;34.88;24.76;99584.46;1775098;80;21020;-72
2022/07/06 11:04:10;;;;;;;14.80;3.98;;;;;;;35.12;24.65;99580.50;1762407;80;21043;-71
2022/07/06 11:06:39;;;;;;;7.75;4.10;;;;;;;35.14;24.76;99574.27;1790487;80;21020;-72
2022/07/06 11:09:09;;;;;;;5.50;3.87;;;;;;;35.20;25.14;99574.72;1790897;80;21303;-72
2022/07/06 11:11:45;;;;;;;6.30;3.67;;;;;;;35.21;25.03;99568.17;1790576;80;21032;-70
2022/07/06 11:14:17;;;;;;;6.75;4.20;;;;;;;35.35;24.72;99570.73;1790695;80;21572;-71
2022/07/06 11:17:01;;;;;;;13.78;4.87;;;;;;;35.42;24.26;99546.83;1790709;80;21123;-71
2022/07/06 11:19:28;;;;;;;11.97;5.30;;;;;;;35.35;24.22;99559.23;1790957;80;21127;-72
2022/07/06 11:22:09;;;;;;;7.97;4.10;;;;;;;35.52;23.82;99547.08;1790464;80;21976;-70
2022/07/06 11:24:39;;;;;;;10.88;4.90;;;;;;;35.64;23.98;99545.80;1788172;80;21000;-70
2022/07/06 11:27:08;;;;;;;7.50;4.50;;;;;;;35.59;24.35;99550.57;1754343;80;22086;-71
2022/07/06 11:29:39;;;;;;;5.80;4.50;;;;;;;35.49;25.05;99547.55;1780456;80;21064;-72
2022/07/06 11:32:09;;;;;;;6.37;5.42;;;;;;;35.34;25.23;99541.67;1780404;80;21049;-72
2022/07/06 11:34:39;;;;;;;9.78;6.03;;;;;;;35.32;24.05;99535.59;1780389;80;21227;-72
2022/07/06 11:37:09;;;;;;;6.95;4.40;;;;;;;35.39;24.48;99534.98;1779922;80;21107;-71
2022/07/06 11:39:41;;;;;;;8.83;4.95;;;;;;;35.45;24.76;99534.02;1780233;80;21582;-72
2022/07/06 11:42:13;;;;;;;6.70;4.25;;;;;;;35.51;25.23;99537.20;1779688;80;21547;-70